sensor_id;sensor_type;location;lat;lon;timestamp;P1;durP1;ratioP1;P2;durP2;ratioP2
64601;SDS011;68371;42.630;23.192;2023-04-15T00:00:16;14.00;;;4.80;;
64601;SDS011;68371;42.630;23.192;2023-04-15T00:02:42;6.15;;;3.88;;
64601;SDS011;68371;42.630;23.192;2023-04-15T00:05:09;7.85;;;4.20;;
64601;SDS011;68371;42.630;23.192;2023-04-15T00:07:36;7.30;;;4.18;;
64601;SDS011;68371;42.630;23.192;2023-04-15T00:10:05;9.60;;;5.78;;
64601;SDS011;68371;42.630;23.192;2023-04-15T00:12:33;9.25;;;4.90;;
64601;SDS011;68371;42.630;23.192;2023-04-15T00:15:07;9.05;;;4.70;;
64601;SDS011;68371;42.630;23.192;2023-04-15T00:17:36;8.85;;;4.97;;
64601;SDS011;68371;42.630;23.192;2023-04-15T00:20:07;11.25;;;5.57;;
64601;SDS011;68371;42.630;23.192;2023-04-15T00:22:35;9.63;;;5.40;;
64601;SDS011;68371;42.630;23.192;2023-04-15T00:25:02;9.00;;;4.88;;
64601;SDS011;68371;42.630;23.192;2023-04-15T00:27:32;9.02;;;5.03;;
64601;SDS011;68371;42.630;23.192;2023-04-15T00:29:58;12.45;;;5.03;;
64601;SDS011;68371;42.630;23.192;2023-04-15T00:32:27;12.82;;;4.88;;
64601;SDS011;68371;42.630;23.192;2023-04-15T00:34:54;8.98;;;5.03;;
64601;SDS011;68371;42.630;23.192;2023-04-15T00:37:20;10.43;;;5.88;;
64601;SDS011;68371;42.630;23.192;2023-04-15T00:39:48;11.02;;;5.20;;
64601;SDS011;68371;42.630;23.192;2023-04-15T00:42:14;11.38;;;5.50;;
64601;SDS011;68371;42.630;23.192;2023-04-15T00:44:42;8.77;;;4.03;;
64601;SDS011;68371;42.630;23.192;2023-04-15T00:47:09;10.40;;;5.18;;
64601;SDS011;68371;42.630;23.192;2023-04-15T00:49:39;8.38;;;4.35;;
64601;SDS011;68371;42.630;23.192;2023-04-15T00:52:05;8.93;;;4.72;;
64601;SDS011;68371;42.630;23.192;2023-04-15T00:54:33;7.70;;;4.72;;
64601;SDS011;68371;42.630;23.192;2023-04-15T00:57:04;11.30;;;4.68;;
64601;SDS011;68371;42.630;23.192;2023-04-15T00:59:33;13.82;;;4.60;;
64601;SDS011;68371;42.630;23.192;2023-04-15T01:02:01;7.57;;;4.32;;
64601;SDS011;68371;42.630;23.192;2023-04-15T01:04:28;9.65;;;4.20;;
64601;SDS011;68371;42.630;23.192;2023-04-15T01:06:57;8.57;;;3.92;;
64601;SDS011;68371;42.630;23.192;2023-04-15T01:09:24;8.98;;;3.78;;
64601;SDS011;68371;42.630;23.192;2023-04-15T01:11:51;5.65;;;3.08;;
64601;SDS011;68371;42.630;23.192;2023-04-15T01:14:18;8.05;;;3.47;;
64601;SDS011;68371;42.630;23.192;2023-04-15T01:16:45;4.03;;;2.65;;
64601;SDS011;68371;42.630;23.192;2023-04-15T01:19:12;8.27;;;3.95;;
64601;SDS011;68371;42.630;23.192;2023-04-15T01:21:42;6.05;;;3.88;;
64601;SDS011;68371;42.630;23.192;2023-04-15T01:24:10;8.50;;;3.70;;
64601;SDS011;68371;42.630;23.192;2023-04-15T01:26:38;9.63;;;4.13;;
64601;SDS011;68371;42.630;23.192;2023-04-15T01:29:06;8.15;;;4.10;;
64601;SDS011;68371;42.630;23.192;2023-04-15T01:31:33;7.70;;;3.72;;
64601;SDS011;68371;42.630;23.192;2023-04-15T01:34:02;9.50;;;4.13;;
64601;SDS011;68371;42.630;23.192;2023-04-15T01:36:28;7.70;;;4.28;;
64601;SDS011;68371;42.630;23.192;2023-04-15T01:38:55;6.97;;;3.72;;
64601;SDS011;68371;42.630;23.192;2023-04-15T01:41:24;7.45;;;3.95;;
64601;SDS011;68371;42.630;23.192;2023-04-15T01:43:52;11.00;;;4.57;;
64601;SDS011;68371;42.630;23.192;2023-04-15T01:46:19;11.48;;;3.97;;
64601;SDS011;68371;42.630;23.192;2023-04-15T01:48:46;12.98;;;4.40;;
64601;SDS011;68371;42.630;23.192;2023-04-15T01:51:12;11.73;;;5.22;;
64601;SDS011;68371;42.630;23.192;2023-04-15T01:53:39;14.60;;;7.10;;
64601;SDS011;68371;42.630;23.192;2023-04-15T01:56:06;14.15;;;5.45;;
64601;SDS011;68371;42.630;23.192;2023-04-15T01:58:33;13.10;;;5.95;;
64601;SDS011;68371;42.630;23.192;2023-04-15T02:01:03;11.82;;;5.85;;
64601;SDS011;68371;42.630;23.192;2023-04-15T02:03:34;12.57;;;5.28;;
64601;SDS011;68371;42.630;23.192;2023-04-15T02:06:03;13.93;;;5.20;;
64601;SDS011;68371;42.630;23.192;2023-04-15T02:08:31;11.13;;;5.47;;
64601;SDS011;68371;42.630;23.192;2023-04-15T02:10:58;17.20;;;6.60;;
64601;SDS011;68371;42.630;23.192;2023-04-15T02:13:25;11.00;;;4.40;;
64601;SDS011;68371;42.630;23.192;2023-04-15T02:15:53;11.82;;;5.20;;
64601;SDS011;68371;42.630;23.192;2023-04-15T02:18:21;15.60;;;6.90;;
64601;SDS011;68371;42.630;23.192;2023-04-15T02:20:49;13.25;;;6.60;;
64601;SDS011;68371;42.630;23.192;2023-04-15T02:23:17;17.35;;;5.63;;
64601;SDS011;68371;42.630;23.192;2023-04-15T02:25:43;25.17;;;7.10;;
64601;SDS011;68371;42.630;23.192;2023-04-15T02:28:11;13.32;;;5.43;;
64601;SDS011;68371;42.630;23.192;2023-04-15T02:30:38;8.90;;;5.38;;
64601;SDS011;68371;42.630;23.192;2023-04-15T02:33:06;10.50;;;5.03;;
64601;SDS011;68371;42.630;23.192;2023-04-15T02:35:35;11.30;;;5.38;;
64601;SDS011;68371;42.630;23.192;2023-04-15T02:38:06;16.35;;;6.80;;
64601;SDS011;68371;42.630;23.192;2023-04-15T02:40:33;13.18;;;5.60;;
64601;SDS011;68371;42.630;23.192;2023-04-15T02:43:01;15.68;;;5.90;;
64601;SDS011;68371;42.630;23.192;2023-04-15T02:45:29;13.40;;;5.32;;
64601;SDS011;68371;42.630;23.192;2023-04-15T02:47:56;11.52;;;6.03;;
64601;SDS011;68371;42.630;23.192;2023-04-15T02:50:22;10.25;;;6.05;;
64601;SDS011;68371;42.630;23.192;2023-04-15T02:52:51;19.52;;;10.15;;
64601;SDS011;68371;42.630;23.192;2023-04-15T02:55:17;16.38;;;8.32;;
64601;SDS011;68371;42.630;23.192;2023-04-15T02:57:44;24.20;;;11.10;;
64601;SDS011;68371;42.630;23.192;2023-04-15T03:00:11;16.60;;;9.05;;
64601;SDS011;68371;42.630;23.192;2023-04-15T03:02:39;16.67;;;8.02;;
64601;SDS011;68371;42.630;23.192;2023-04-15T03:05:09;20.48;;;8.35;;
64601;SDS011;68371;42.630;23.192;2023-04-15T03:07:37;17.20;;;7.35;;
64601;SDS011;68371;42.630;23.192;2023-04-15T03:10:08;15.25;;;7.35;;
64601;SDS011;68371;42.630;23.192;2023-04-15T03:15:03;11.45;;;6.30;;
64601;SDS011;68371;42.630;23.192;2023-04-15T03:17:32;12.70;;;6.90;;
64601;SDS011;68371;42.630;23.192;2023-04-15T03:19:59;14.75;;;6.75;;
64601;SDS011;68371;42.630;23.192;2023-04-15T03:22:26;16.98;;;8.35;;
64601;SDS011;68371;42.630;23.192;2023-04-15T03:24:53;14.07;;;6.65;;
64601;SDS011;68371;42.630;23.192;2023-04-15T03:27:21;97.65;;;39.13;;
64601;SDS011;68371;42.630;23.192;2023-04-15T03:29:48;39.85;;;17.80;;
64601;SDS011;68371;42.630;23.192;2023-04-15T03:32:15;18.40;;;8.13;;
64601;SDS011;68371;42.630;23.192;2023-04-15T03:34:41;23.30;;;9.77;;
64601;SDS011;68371;42.630;23.192;2023-04-15T03:37:08;22.73;;;9.95;;
64601;SDS011;68371;42.630;23.192;2023-04-15T03:39:37;17.40;;;7.18;;
64601;SDS011;68371;42.630;23.192;2023-04-15T03:42:03;15.75;;;8.15;;
64601;SDS011;68371;42.630;23.192;2023-04-15T03:44:34;10.88;;;5.28;;
64601;SDS011;68371;42.630;23.192;2023-04-15T03:47:02;18.38;;;6.72;;
64601;SDS011;68371;42.630;23.192;2023-04-15T03:49:29;14.23;;;6.65;;
64601;SDS011;68371;42.630;23.192;2023-04-15T03:51:55;14.98;;;5.78;;
64601;SDS011;68371;42.630;23.192;2023-04-15T03:54:22;16.08;;;5.90;;
64601;SDS011;68371;42.630;23.192;2023-04-15T03:56:49;14.95;;;5.75;;
64601;SDS011;68371;42.630;23.192;2023-04-15T03:59:16;15.98;;;6.80;;
64601;SDS011;68371;42.630;23.192;2023-04-15T04:01:44;18.67;;;7.93;;
64601;SDS011;68371;42.630;23.192;2023-04-15T04:04:11;14.95;;;7.65;;
64601;SDS011;68371;42.630;23.192;2023-04-15T04:06:37;21.30;;;8.70;;
64601;SDS011;68371;42.630;23.192;2023-04-15T04:09:04;25.55;;;9.60;;
64601;SDS011;68371;42.630;23.192;2023-04-15T04:11:33;21.27;;;9.88;;
64601;SDS011;68371;42.630;23.192;2023-04-15T04:14:02;23.23;;;7.57;;
64601;SDS011;68371;42.630;23.192;2023-04-15T04:16:29;15.10;;;7.15;;
64601;SDS011;68371;42.630;23.192;2023-04-15T04:18:57;15.13;;;7.32;;
64601;SDS011;68371;42.630;23.192;2023-04-15T04:21:23;17.45;;;7.45;;
64601;SDS011;68371;42.630;23.192;2023-04-15T04:23:50;14.10;;;7.72;;
64601;SDS011;68371;42.630;23.192;2023-04-15T04:26:17;14.65;;;7.40;;
64601;SDS011;68371;42.630;23.192;2023-04-15T04:28:44;16.80;;;7.78;;
64601;SDS011;68371;42.630;23.192;2023-04-15T04:31:11;81.60;;;20.85;;
64601;SDS011;68371;42.630;23.192;2023-04-15T04:33:38;56.03;;;14.25;;
64601;SDS011;68371;42.630;23.192;2023-04-15T04:36:07;24.83;;;9.77;;
64601;SDS011;68371;42.630;23.192;2023-04-15T04:38:34;17.00;;;7.75;;
64601;SDS011;68371;42.630;23.192;2023-04-15T04:41:02;13.63;;;7.03;;
64601;SDS011;68371;42.630;23.192;2023-04-15T04:43:29;14.13;;;6.35;;
64601;SDS011;68371;42.630;23.192;2023-04-15T04:45:56;12.27;;;5.70;;
64601;SDS011;68371;42.630;23.192;2023-04-15T04:48:22;12.73;;;5.68;;
64601;SDS011;68371;42.630;23.192;2023-04-15T04:50:50;9.32;;;5.15;;
64601;SDS011;68371;42.630;23.192;2023-04-15T04:53:18;13.60;;;5.38;;
64601;SDS011;68371;42.630;23.192;2023-04-15T04:55:45;12.77;;;6.50;;
64601;SDS011;68371;42.630;23.192;2023-04-15T04:58:11;12.98;;;6.05;;
64601;SDS011;68371;42.630;23.192;2023-04-15T05:00:38;12.43;;;5.75;;
64601;SDS011;68371;42.630;23.192;2023-04-15T05:03:09;15.10;;;5.93;;
64601;SDS011;68371;42.630;23.192;2023-04-15T05:05:37;18.30;;;6.35;;
64601;SDS011;68371;42.630;23.192;2023-04-15T05:08:05;15.50;;;4.63;;
64601;SDS011;68371;42.630;23.192;2023-04-15T05:10:34;11.13;;;3.28;;
64601;SDS011;68371;42.630;23.192;2023-04-15T05:13:02;11.68;;;5.22;;
64601;SDS011;68371;42.630;23.192;2023-04-15T05:15:29;12.23;;;4.68;;
64601;SDS011;68371;42.630;23.192;2023-04-15T05:17:56;5.38;;;2.40;;
64601;SDS011;68371;42.630;23.192;2023-04-15T05:20:23;8.95;;;3.05;;
64601;SDS011;68371;42.630;23.192;2023-04-15T05:22:50;7.13;;;2.72;;
64601;SDS011;68371;42.630;23.192;2023-04-15T05:25:16;7.28;;;3.05;;
64601;SDS011;68371;42.630;23.192;2023-04-15T05:27:45;12.50;;;3.13;;
64601;SDS011;68371;42.630;23.192;2023-04-15T05:30:11;10.15;;;2.78;;
64601;SDS011;68371;42.630;23.192;2023-04-15T05:32:38;6.55;;;1.80;;
64601;SDS011;68371;42.630;23.192;2023-04-15T05:35:07;0.85;;;0.60;;
64601;SDS011;68371;42.630;23.192;2023-04-15T05:37:34;7.75;;;1.98;;
64601;SDS011;68371;42.630;23.192;2023-04-15T05:40:00;7.80;;;2.42;;
64601;SDS011;68371;42.630;23.192;2023-04-15T05:42:28;2.75;;;1.13;;
64601;SDS011;68371;42.630;23.192;2023-04-15T05:44:56;2.30;;;0.85;;
64601;SDS011;68371;42.630;23.192;2023-04-15T05:47:23;4.00;;;0.68;;
64601;SDS011;68371;42.630;23.192;2023-04-15T05:49:50;3.38;;;0.63;;
64601;SDS011;68371;42.630;23.192;2023-04-15T05:52:17;1.23;;;0.68;;
64601;SDS011;68371;42.630;23.192;2023-04-15T05:54:43;3.92;;;0.68;;
64601;SDS011;68371;42.630;23.192;2023-04-15T05:57:10;2.25;;;0.80;;
64601;SDS011;68371;42.630;23.192;2023-04-15T05:59:38;2.20;;;0.57;;
64601;SDS011;68371;42.630;23.192;2023-04-15T06:02:09;1.90;;;0.80;;
64601;SDS011;68371;42.630;23.192;2023-04-15T06:04:38;3.97;;;0.85;;
64601;SDS011;68371;42.630;23.192;2023-04-15T06:07:04;2.63;;;0.70;;
64601;SDS011;68371;42.630;23.192;2023-04-15T06:09:35;1.98;;;0.80;;
64601;SDS011;68371;42.630;23.192;2023-04-15T06:12:03;4.93;;;1.23;;
64601;SDS011;68371;42.630;23.192;2023-04-15T06:14:30;3.10;;;0.70;;
64601;SDS011;68371;42.630;23.192;2023-04-15T06:16:57;4.60;;;0.90;;
64601;SDS011;68371;42.630;23.192;2023-04-15T06:19:25;1.10;;;0.50;;
64601;SDS011;68371;42.630;23.192;2023-04-15T06:21:52;1.15;;;0.35;;
64601;SDS011;68371;42.630;23.192;2023-04-15T06:24:19;0.17;;;0.13;;
64601;SDS011;68371;42.630;23.192;2023-04-15T06:26:46;1.80;;;0.43;;
64601;SDS011;68371;42.630;23.192;2023-04-15T06:29:12;3.72;;;0.77;;
64601;SDS011;68371;42.630;23.192;2023-04-15T06:31:40;1.85;;;0.85;;
64601;SDS011;68371;42.630;23.192;2023-04-15T06:34:08;0.85;;;0.40;;
64601;SDS011;68371;42.630;23.192;2023-04-15T06:36:38;1.85;;;0.82;;
64601;SDS011;68371;42.630;23.192;2023-04-15T06:39:05;3.33;;;0.73;;
64601;SDS011;68371;42.630;23.192;2023-04-15T06:41:33;2.28;;;0.50;;
64601;SDS011;68371;42.630;23.192;2023-04-15T06:44:00;1.30;;;0.68;;
64601;SDS011;68371;42.630;23.192;2023-04-15T06:46:27;2.75;;;0.80;;
64601;SDS011;68371;42.630;23.192;2023-04-15T06:48:54;3.65;;;1.10;;
64601;SDS011;68371;42.630;23.192;2023-04-15T06:51:21;0.70;;;0.30;;
64601;SDS011;68371;42.630;23.192;2023-04-15T06:53:49;3.10;;;0.50;;
64601;SDS011;68371;42.630;23.192;2023-04-15T06:56:16;2.70;;;0.70;;
64601;SDS011;68371;42.630;23.192;2023-04-15T06:58:42;3.88;;;0.77;;
64601;SDS011;68371;42.630;23.192;2023-04-15T07:01:09;2.72;;;0.85;;
64601;SDS011;68371;42.630;23.192;2023-04-15T07:03:36;4.18;;;0.70;;
64601;SDS011;68371;42.630;23.192;2023-04-15T07:06:08;5.07;;;1.33;;
64601;SDS011;68371;42.630;23.192;2023-04-15T07:08:35;4.75;;;1.02;;
64601;SDS011;68371;42.630;23.192;2023-04-15T07:11:05;3.17;;;0.57;;
64601;SDS011;68371;42.630;23.192;2023-04-15T07:13:33;1.40;;;0.70;;
64601;SDS011;68371;42.630;23.192;2023-04-15T07:16:00;0.50;;;0.32;;
64601;SDS011;68371;42.630;23.192;2023-04-15T07:18:27;3.90;;;1.23;;
64601;SDS011;68371;42.630;23.192;2023-04-15T07:20:54;7.07;;;0.93;;
64601;SDS011;68371;42.630;23.192;2023-04-15T07:23:20;2.08;;;0.80;;
64601;SDS011;68371;42.630;23.192;2023-04-15T07:25:47;4.15;;;0.90;;
64601;SDS011;68371;42.630;23.192;2023-04-15T07:28:16;1.25;;;0.50;;
64601;SDS011;68371;42.630;23.192;2023-04-15T07:30:42;6.63;;;1.13;;
64601;SDS011;68371;42.630;23.192;2023-04-15T07:33:09;2.60;;;0.47;;
64601;SDS011;68371;42.630;23.192;2023-04-15T07:35:36;3.30;;;0.73;;
64601;SDS011;68371;42.630;23.192;2023-04-15T07:38:04;2.38;;;0.82;;
64601;SDS011;68371;42.630;23.192;2023-04-15T07:40:31;2.40;;;0.73;;
64601;SDS011;68371;42.630;23.192;2023-04-15T07:42:57;4.15;;;1.00;;
64601;SDS011;68371;42.630;23.192;2023-04-15T07:45:25;2.10;;;0.98;;
64601;SDS011;68371;42.630;23.192;2023-04-15T07:47:52;5.15;;;0.98;;
64601;SDS011;68371;42.630;23.192;2023-04-15T07:50:20;3.53;;;0.82;;
64601;SDS011;68371;42.630;23.192;2023-04-15T07:52:47;1.92;;;0.95;;
64601;SDS011;68371;42.630;23.192;2023-04-15T07:55:14;5.85;;;1.17;;
64601;SDS011;68371;42.630;23.192;2023-04-15T07:57:44;2.38;;;0.88;;
64601;SDS011;68371;42.630;23.192;2023-04-15T08:00:11;4.93;;;1.30;;
64601;SDS011;68371;42.630;23.192;2023-04-15T08:02:41;2.83;;;1.02;;
64601;SDS011;68371;42.630;23.192;2023-04-15T08:05:10;4.07;;;0.93;;
64601;SDS011;68371;42.630;23.192;2023-04-15T08:07:38;3.42;;;0.85;;
64601;SDS011;68371;42.630;23.192;2023-04-15T08:10:06;1.77;;;0.60;;
64601;SDS011;68371;42.630;23.192;2023-04-15T08:12:36;1.55;;;0.73;;
64601;SDS011;68371;42.630;23.192;2023-04-15T08:15:04;4.00;;;0.90;;
64601;SDS011;68371;42.630;23.192;2023-04-15T08:17:32;4.18;;;0.88;;
64601;SDS011;68371;42.630;23.192;2023-04-15T08:20:00;2.00;;;0.90;;
64601;SDS011;68371;42.630;23.192;2023-04-15T08:22:27;3.80;;;0.73;;
64601;SDS011;68371;42.630;23.192;2023-04-15T08:24:54;1.70;;;0.88;;
64601;SDS011;68371;42.630;23.192;2023-04-15T08:27:21;2.53;;;0.90;;
64601;SDS011;68371;42.630;23.192;2023-04-15T08:29:47;1.95;;;0.60;;
64601;SDS011;68371;42.630;23.192;2023-04-15T08:32:14;1.50;;;0.52;;
64601;SDS011;68371;42.630;23.192;2023-04-15T08:34:41;0.85;;;0.50;;
64601;SDS011;68371;42.630;23.192;2023-04-15T08:37:12;0.98;;;0.38;;
64601;SDS011;68371;42.630;23.192;2023-04-15T08:39:39;0.88;;;0.57;;
64601;SDS011;68371;42.630;23.192;2023-04-15T08:42:07;1.75;;;0.63;;
64601;SDS011;68371;42.630;23.192;2023-04-15T08:44:40;2.92;;;1.08;;
64601;SDS011;68371;42.630;23.192;2023-04-15T08:47:09;1.13;;;0.55;;
64601;SDS011;68371;42.630;23.192;2023-04-15T08:49:39;2.17;;;0.60;;
64601;SDS011;68371;42.630;23.192;2023-04-15T08:52:09;0.88;;;0.30;;
64601;SDS011;68371;42.630;23.192;2023-04-15T08:54:40;2.10;;;0.50;;
64601;SDS011;68371;42.630;23.192;2023-04-15T08:57:07;3.20;;;0.70;;
64601;SDS011;68371;42.630;23.192;2023-04-15T08:59:36;1.40;;;0.65;;
64601;SDS011;68371;42.630;23.192;2023-04-15T09:02:04;2.30;;;0.70;;
64601;SDS011;68371;42.630;23.192;2023-04-15T09:04:32;2.78;;;0.70;;
64601;SDS011;68371;42.630;23.192;2023-04-15T09:06:59;3.03;;;0.60;;
64601;SDS011;68371;42.630;23.192;2023-04-15T09:09:26;1.92;;;0.57;;
64601;SDS011;68371;42.630;23.192;2023-04-15T09:11:57;1.95;;;0.60;;
64601;SDS011;68371;42.630;23.192;2023-04-15T09:14:23;1.35;;;0.50;;
64601;SDS011;68371;42.630;23.192;2023-04-15T09:16:57;1.00;;;0.50;;
64601;SDS011;68371;42.630;23.192;2023-04-15T09:19:24;1.83;;;0.70;;
64601;SDS011;68371;42.630;23.192;2023-04-15T09:21:52;2.15;;;0.50;;
64601;SDS011;68371;42.630;23.192;2023-04-15T09:24:20;1.08;;;0.50;;
64601;SDS011;68371;42.630;23.192;2023-04-15T09:26:48;1.25;;;0.28;;
64601;SDS011;68371;42.630;23.192;2023-04-15T09:29:19;1.27;;;0.37;;
64601;SDS011;68371;42.630;23.192;2023-04-15T09:31:50;3.60;;;0.55;;
64601;SDS011;68371;42.630;23.192;2023-04-15T09:34:16;2.35;;;0.50;;
64601;SDS011;68371;42.630;23.192;2023-04-15T09:36:53;5.55;;;0.52;;
64601;SDS011;68371;42.630;23.192;2023-04-15T09:39:21;0.88;;;0.50;;
64601;SDS011;68371;42.630;23.192;2023-04-15T09:42:04;1.95;;;0.50;;
64601;SDS011;68371;42.630;23.192;2023-04-15T09:44:33;3.85;;;0.70;;
64601;SDS011;68371;42.630;23.192;2023-04-15T09:47:00;1.58;;;0.40;;
64601;SDS011;68371;42.630;23.192;2023-04-15T09:49:27;5.15;;;3.05;;
64601;SDS011;68371;42.630;23.192;2023-04-15T09:51:56;2.92;;;0.80;;
64601;SDS011;68371;42.630;23.192;2023-04-15T09:57:03;6.60;;;0.70;;
64601;SDS011;68371;42.630;23.192;2023-04-15T09:59:30;1.35;;;0.60;;
64601;SDS011;68371;42.630;23.192;2023-04-15T10:01:58;2.10;;;0.70;;
64601;SDS011;68371;42.630;23.192;2023-04-15T10:04:26;4.07;;;0.80;;
64601;SDS011;68371;42.630;23.192;2023-04-15T10:06:53;1.42;;;0.38;;
64601;SDS011;68371;42.630;23.192;2023-04-15T10:09:21;1.60;;;0.63;;
64601;SDS011;68371;42.630;23.192;2023-04-15T10:11:48;3.85;;;0.88;;
64601;SDS011;68371;42.630;23.192;2023-04-15T10:14:16;2.53;;;0.70;;
64601;SDS011;68371;42.630;23.192;2023-04-15T10:16:44;1.33;;;0.57;;
64601;SDS011;68371;42.630;23.192;2023-04-15T10:19:15;1.83;;;0.40;;
64601;SDS011;68371;42.630;23.192;2023-04-15T10:21:46;4.25;;;0.70;;
64601;SDS011;68371;42.630;23.192;2023-04-15T10:24:15;5.15;;;0.88;;
64601;SDS011;68371;42.630;23.192;2023-04-15T10:26:42;2.92;;;0.73;;
64601;SDS011;68371;42.630;23.192;2023-04-15T10:29:10;2.33;;;0.73;;
64601;SDS011;68371;42.630;23.192;2023-04-15T10:31:37;2.20;;;0.55;;
64601;SDS011;68371;42.630;23.192;2023-04-15T10:34:06;5.65;;;0.77;;
64601;SDS011;68371;42.630;23.192;2023-04-15T10:36:36;2.65;;;0.77;;
64601;SDS011;68371;42.630;23.192;2023-04-15T10:39:15;1.58;;;0.55;;
64601;SDS011;68371;42.630;23.192;2023-04-15T10:42:08;1.52;;;0.60;;
64601;SDS011;68371;42.630;23.192;2023-04-15T10:44:37;1.90;;;0.82;;
64601;SDS011;68371;42.630;23.192;2023-04-15T10:47:11;3.60;;;1.00;;
64601;SDS011;68371;42.630;23.192;2023-04-15T10:49:43;3.80;;;0.93;;
64601;SDS011;68371;42.630;23.192;2023-04-15T10:52:13;2.42;;;0.77;;
64601;SDS011;68371;42.630;23.192;2023-04-15T10:54:41;4.82;;;0.90;;
64601;SDS011;68371;42.630;23.192;2023-04-15T10:57:13;4.50;;;1.05;;
64601;SDS011;68371;42.630;23.192;2023-04-15T11:00:02;1.75;;;0.70;;
64601;SDS011;68371;42.630;23.192;2023-04-15T11:02:37;6.00;;;1.02;;
64601;SDS011;68371;42.630;23.192;2023-04-15T11:05:10;4.18;;;0.82;;
64601;SDS011;68371;42.630;23.192;2023-04-15T11:07:47;4.65;;;1.15;;
64601;SDS011;68371;42.630;23.192;2023-04-15T11:13:26;3.03;;;0.90;;
64601;SDS011;68371;42.630;23.192;2023-04-15T11:16:01;2.40;;;0.82;;
64601;SDS011;68371;42.630;23.192;2023-04-15T11:18:29;1.98;;;0.70;;
64601;SDS011;68371;42.630;23.192;2023-04-15T11:20:58;4.45;;;0.80;;
64601;SDS011;68371;42.630;23.192;2023-04-15T11:23:29;2.60;;;0.85;;
64601;SDS011;68371;42.630;23.192;2023-04-15T11:25:58;3.03;;;0.90;;
64601;SDS011;68371;42.630;23.192;2023-04-15T11:28:25;5.65;;;0.90;;
64601;SDS011;68371;42.630;23.192;2023-04-15T11:30:53;3.45;;;0.93;;
64601;SDS011;68371;42.630;23.192;2023-04-15T11:33:20;5.82;;;1.10;;
64601;SDS011;68371;42.630;23.192;2023-04-15T11:35:48;2.03;;;0.90;;
64601;SDS011;68371;42.630;23.192;2023-04-15T11:38:15;2.08;;;0.80;;
64601;SDS011;68371;42.630;23.192;2023-04-15T11:40:43;1.58;;;0.70;;
64601;SDS011;68371;42.630;23.192;2023-04-15T11:43:11;5.35;;;0.85;;
64601;SDS011;68371;42.630;23.192;2023-04-15T11:45:48;3.08;;;1.20;;
64601;SDS011;68371;42.630;23.192;2023-04-15T11:48:17;1.33;;;0.63;;
64601;SDS011;68371;42.630;23.192;2023-04-15T11:50:45;2.80;;;0.90;;
64601;SDS011;68371;42.630;23.192;2023-04-15T11:53:12;2.42;;;0.82;;
64601;SDS011;68371;42.630;23.192;2023-04-15T11:55:44;4.63;;;0.68;;
64601;SDS011;68371;42.630;23.192;2023-04-15T11:58:12;2.25;;;0.60;;
64601;SDS011;68371;42.630;23.192;2023-04-15T12:00:44;1.58;;;0.80;;
64601;SDS011;68371;42.630;23.192;2023-04-15T12:03:20;2.55;;;0.80;;
64601;SDS011;68371;42.630;23.192;2023-04-15T12:06:08;3.33;;;0.80;;
64601;SDS011;68371;42.630;23.192;2023-04-15T12:08:47;1.15;;;0.50;;
64601;SDS011;68371;42.630;23.192;2023-04-15T12:11:20;1.63;;;0.70;;
64601;SDS011;68371;42.630;23.192;2023-04-15T12:13:54;0.80;;;0.30;;
64601;SDS011;68371;42.630;23.192;2023-04-15T12:16:23;2.30;;;0.70;;
64601;SDS011;68371;42.630;23.192;2023-04-15T12:18:51;4.28;;;0.80;;
64601;SDS011;68371;42.630;23.192;2023-04-15T12:21:20;1.92;;;0.70;;
64601;SDS011;68371;42.630;23.192;2023-04-15T12:23:47;2.67;;;0.60;;
64601;SDS011;68371;42.630;23.192;2023-04-15T12:26:15;4.25;;;1.10;;
64601;SDS011;68371;42.630;23.192;2023-04-15T12:28:43;0.98;;;0.63;;
64601;SDS011;68371;42.630;23.192;2023-04-15T12:31:10;2.45;;;0.60;;
64601;SDS011;68371;42.630;23.192;2023-04-15T12:33:38;2.22;;;0.40;;
64601;SDS011;68371;42.630;23.192;2023-04-15T12:36:06;1.77;;;0.70;;
64601;SDS011;68371;42.630;23.192;2023-04-15T12:38:33;1.10;;;0.43;;
64601;SDS011;68371;42.630;23.192;2023-04-15T12:41:00;1.58;;;0.50;;
64601;SDS011;68371;42.630;23.192;2023-04-15T12:43:26;1.92;;;0.45;;
64601;SDS011;68371;42.630;23.192;2023-04-15T12:45:55;2.08;;;0.45;;
64601;SDS011;68371;42.630;23.192;2023-04-15T12:48:21;2.53;;;0.60;;
64601;SDS011;68371;42.630;23.192;2023-04-15T12:50:48;1.25;;;0.55;;
64601;SDS011;68371;42.630;23.192;2023-04-15T12:53:15;6.00;;;0.75;;
64601;SDS011;68371;42.630;23.192;2023-04-15T12:55:42;3.30;;;0.50;;
64601;SDS011;68371;42.630;23.192;2023-04-15T12:58:08;1.63;;;0.70;;
64601;SDS011;68371;42.630;23.192;2023-04-15T13:00:37;1.30;;;0.50;;
64601;SDS011;68371;42.630;23.192;2023-04-15T13:03:07;3.33;;;0.43;;
64601;SDS011;68371;42.630;23.192;2023-04-15T13:05:36;2.10;;;0.63;;
64601;SDS011;68371;42.630;23.192;2023-04-15T13:08:04;2.58;;;0.75;;
64601;SDS011;68371;42.630;23.192;2023-04-15T13:10:31;1.40;;;0.63;;
64601;SDS011;68371;42.630;23.192;2023-04-15T13:12:58;2.55;;;0.55;;
64601;SDS011;68371;42.630;23.192;2023-04-15T13:15:24;2.70;;;0.50;;
64601;SDS011;68371;42.630;23.192;2023-04-15T13:17:51;1.67;;;0.50;;
64601;SDS011;68371;42.630;23.192;2023-04-15T13:20:19;6.18;;;0.82;;
64601;SDS011;68371;42.630;23.192;2023-04-15T13:22:46;2.47;;;0.63;;
64601;SDS011;68371;42.630;23.192;2023-04-15T13:25:13;2.03;;;0.70;;
64601;SDS011;68371;42.630;23.192;2023-04-15T13:27:41;1.88;;;0.40;;
64601;SDS011;68371;42.630;23.192;2023-04-15T13:30:08;1.23;;;0.60;;
64601;SDS011;68371;42.630;23.192;2023-04-15T13:32:36;3.97;;;0.80;;
64601;SDS011;68371;42.630;23.192;2023-04-15T13:35:03;1.13;;;0.50;;
64601;SDS011;68371;42.630;23.192;2023-04-15T13:37:32;1.83;;;0.30;;
64601;SDS011;68371;42.630;23.192;2023-04-15T13:39:58;1.63;;;0.50;;
64601;SDS011;68371;42.630;23.192;2023-04-15T13:42:25;1.30;;;0.40;;
64601;SDS011;68371;42.630;23.192;2023-04-15T13:44:52;2.15;;;0.38;;
64601;SDS011;68371;42.630;23.192;2023-04-15T13:47:19;0.70;;;0.50;;
64601;SDS011;68371;42.630;23.192;2023-04-15T13:49:46;2.75;;;0.55;;
64601;SDS011;68371;42.630;23.192;2023-04-15T13:52:13;1.48;;;0.55;;
64601;SDS011;68371;42.630;23.192;2023-04-15T13:54:42;1.33;;;0.40;;
64601;SDS011;68371;42.630;23.192;2023-04-15T13:57:09;1.80;;;0.60;;
64601;SDS011;68371;42.630;23.192;2023-04-15T13:59:38;2.33;;;0.43;;
64601;SDS011;68371;42.630;23.192;2023-04-15T14:02:06;1.30;;;0.30;;
64601;SDS011;68371;42.630;23.192;2023-04-15T14:04:33;3.30;;;0.40;;
64601;SDS011;68371;42.630;23.192;2023-04-15T14:06:59;1.65;;;0.63;;
64601;SDS011;68371;42.630;23.192;2023-04-15T14:09:26;2.72;;;0.50;;
64601;SDS011;68371;42.630;23.192;2023-04-15T14:11:54;3.95;;;0.43;;
64601;SDS011;68371;42.630;23.192;2023-04-15T14:14:23;1.45;;;0.40;;
64601;SDS011;68371;42.630;23.192;2023-04-15T14:16:49;2.15;;;0.50;;
64601;SDS011;68371;42.630;23.192;2023-04-15T14:19:16;1.48;;;0.57;;
64601;SDS011;68371;42.630;23.192;2023-04-15T14:21:43;1.52;;;0.80;;
64601;SDS011;68371;42.630;23.192;2023-04-15T14:24:11;1.25;;;0.50;;
64601;SDS011;68371;42.630;23.192;2023-04-15T14:26:37;2.17;;;0.70;;
64601;SDS011;68371;42.630;23.192;2023-04-15T14:29:05;1.50;;;0.68;;
64601;SDS011;68371;42.630;23.192;2023-04-15T14:31:32;1.48;;;0.50;;
64601;SDS011;68371;42.630;23.192;2023-04-15T14:33:59;0.85;;;0.30;;
64601;SDS011;68371;42.630;23.192;2023-04-15T14:36:26;2.55;;;0.40;;
64601;SDS011;68371;42.630;23.192;2023-04-15T14:38:52;2.13;;;0.38;;
64601;SDS011;68371;42.630;23.192;2023-04-15T14:41:19;1.17;;;0.40;;
64601;SDS011;68371;42.630;23.192;2023-04-15T14:43:46;1.20;;;0.50;;